sensor_id;sensor_type;location;lat;lon;timestamp;P1;durP1;ratioP1;P2;durP2;ratioP2
75667;SDS011;64266;48.798;44.756;2023-12-14T00:00:15;68.65;;;5.03;;
75667;SDS011;64266;48.798;44.756;2023-12-14T00:05:20;61.22;;;6.68;;
75667;SDS011;64266;48.798;44.756;2023-12-14T00:10:23;91.00;;;8.77;;
75667;SDS011;64266;48.798;44.756;2023-12-14T00:15:26;58.95;;;6.22;;
75667;SDS011;64266;48.798;44.756;2023-12-14T00:20:29;78.50;;;7.38;;
75667;SDS011;64266;48.798;44.756;2023-12-14T00:25:32;69.72;;;9.55;;
75667;SDS011;64266;48.798;44.756;2023-12-14T00:30:36;61.65;;;6.40;;
75667;SDS011;64266;48.798;44.756;2023-12-14T00:35:39;64.85;;;6.63;;
75667;SDS011;64266;48.798;44.756;2023-12-14T00:40:42;60.38;;;5.32;;
75667;SDS011;64266;48.798;44.756;2023-12-14T00:45:45;52.75;;;5.78;;
75667;SDS011;64266;48.798;44.756;2023-12-14T00:50:48;58.70;;;6.10;;
75667;SDS011;64266;48.798;44.756;2023-12-14T00:55:51;62.08;;;6.50;;
75667;SDS011;64266;48.798;44.756;2023-12-14T01:00:54;47.42;;;7.22;;
75667;SDS011;64266;48.798;44.756;2023-12-14T01:05:58;56.63;;;7.03;;
75667;SDS011;64266;48.798;44.756;2023-12-14T01:11:01;41.72;;;4.32;;
75667;SDS011;64266;48.798;44.756;2023-12-14T01:16:04;56.40;;;5.95;;
75667;SDS011;64266;48.798;44.756;2023-12-14T01:21:07;56.00;;;6.55;;
75667;SDS011;64266;48.798;44.756;2023-12-14T01:26:10;58.63;;;4.80;;
75667;SDS011;64266;48.798;44.756;2023-12-14T01:31:13;57.10;;;6.28;;
75667;SDS011;64266;48.798;44.756;2023-12-14T01:36:22;72.78;;;9.40;;
75667;SDS011;64266;48.798;44.756;2023-12-14T01:41:26;56.50;;;5.20;;
75667;SDS011;64266;48.798;44.756;2023-12-14T01:46:29;62.78;;;6.00;;
75667;SDS011;64266;48.798;44.756;2023-12-14T01:51:32;52.85;;;5.53;;
75667;SDS011;64266;48.798;44.756;2023-12-14T01:56:37;47.88;;;5.93;;
75667;SDS011;64266;48.798;44.756;2023-12-14T02:01:44;40.53;;;4.95;;
75667;SDS011;64266;48.798;44.756;2023-12-14T02:06:48;60.08;;;5.53;;
75667;SDS011;64266;48.798;44.756;2023-12-14T02:11:52;39.80;;;5.15;;
75667;SDS011;64266;48.798;44.756;2023-12-14T02:16:54;52.42;;;5.00;;
75667;SDS011;64266;48.798;44.756;2023-12-14T02:21:57;48.83;;;4.13;;
75667;SDS011;64266;48.798;44.756;2023-12-14T02:27:00;66.18;;;6.28;;
75667;SDS011;64266;48.798;44.756;2023-12-14T02:32:05;35.83;;;4.85;;
75667;SDS011;64266;48.798;44.756;2023-12-14T02:37:08;41.30;;;5.55;;
75667;SDS011;64266;48.798;44.756;2023-12-14T02:42:11;60.22;;;4.50;;
75667;SDS011;64266;48.798;44.756;2023-12-14T02:47:14;45.25;;;6.72;;
75667;SDS011;64266;48.798;44.756;2023-12-14T02:52:17;36.25;;;6.22;;
75667;SDS011;64266;48.798;44.756;2023-12-14T02:57:20;37.53;;;5.70;;
75667;SDS011;64266;48.798;44.756;2023-12-14T03:02:23;38.03;;;5.45;;
75667;SDS011;64266;48.798;44.756;2023-12-14T03:07:26;49.13;;;5.60;;
75667;SDS011;64266;48.798;44.756;2023-12-14T03:12:29;50.78;;;4.57;;
75667;SDS011;64266;48.798;44.756;2023-12-14T03:17:32;34.03;;;4.90;;
75667;SDS011;64266;48.798;44.756;2023-12-14T03:22:35;49.88;;;4.55;;
75667;SDS011;64266;48.798;44.756;2023-12-14T03:27:38;33.55;;;4.53;;
75667;SDS011;64266;48.798;44.756;2023-12-14T03:32:41;29.60;;;4.32;;
75667;SDS011;64266;48.798;44.756;2023-12-14T03:37:45;36.28;;;4.32;;
75667;SDS011;64266;48.798;44.756;2023-12-14T03:42:48;49.22;;;5.38;;
75667;SDS011;64266;48.798;44.756;2023-12-14T03:47:51;43.63;;;5.60;;
75667;SDS011;64266;48.798;44.756;2023-12-14T03:52:54;37.08;;;4.30;;
75667;SDS011;64266;48.798;44.756;2023-12-14T03:57:57;32.58;;;4.82;;
75667;SDS011;64266;48.798;44.756;2023-12-14T04:03:00;33.72;;;4.80;;
75667;SDS011;64266;48.798;44.756;2023-12-14T04:08:03;31.10;;;3.65;;
75667;SDS011;64266;48.798;44.756;2023-12-14T04:13:06;52.80;;;4.90;;
75667;SDS011;64266;48.798;44.756;2023-12-14T04:18:09;50.00;;;5.07;;
75667;SDS011;64266;48.798;44.756;2023-12-14T04:23:12;39.58;;;4.00;;
75667;SDS011;64266;48.798;44.756;2023-12-14T04:28:15;38.58;;;5.75;;
75667;SDS011;64266;48.798;44.756;2023-12-14T04:33:18;22.30;;;3.90;;
75667;SDS011;64266;48.798;44.756;2023-12-14T04:38:21;51.33;;;5.60;;
75667;SDS011;64266;48.798;44.756;2023-12-14T04:43:24;40.42;;;4.25;;
75667;SDS011;64266;48.798;44.756;2023-12-14T04:48:27;37.05;;;4.85;;
75667;SDS011;64266;48.798;44.756;2023-12-14T04:53:30;35.80;;;3.88;;
75667;SDS011;64266;48.798;44.756;2023-12-14T04:58:33;43.72;;;4.38;;
75667;SDS011;64266;48.798;44.756;2023-12-14T05:03:36;37.78;;;4.10;;
75667;SDS011;64266;48.798;44.756;2023-12-14T05:08:39;38.90;;;4.65;;
75667;SDS011;64266;48.798;44.756;2023-12-14T05:13:43;47.90;;;5.32;;
75667;SDS011;64266;48.798;44.756;2023-12-14T05:18:45;61.70;;;8.20;;
75667;SDS011;64266;48.798;44.756;2023-12-14T05:23:49;49.28;;;5.57;;
75667;SDS011;64266;48.798;44.756;2023-12-14T05:28:52;52.92;;;9.55;;
75667;SDS011;64266;48.798;44.756;2023-12-14T05:34:00;56.53;;;6.75;;
75667;SDS011;64266;48.798;44.756;2023-12-14T05:39:05;28.95;;;5.00;;
75667;SDS011;64266;48.798;44.756;2023-12-14T05:44:08;48.67;;;7.13;;
75667;SDS011;64266;48.798;44.756;2023-12-14T05:49:10;39.55;;;6.10;;
75667;SDS011;64266;48.798;44.756;2023-12-14T05:54:13;45.45;;;6.75;;
75667;SDS011;64266;48.798;44.756;2023-12-14T05:59:16;40.92;;;6.00;;
75667;SDS011;64266;48.798;44.756;2023-12-14T06:04:21;63.35;;;7.07;;
75667;SDS011;64266;48.798;44.756;2023-12-14T06:09:24;50.13;;;5.80;;
75667;SDS011;64266;48.798;44.756;2023-12-14T06:14:37;55.13;;;7.53;;
75667;SDS011;64266;48.798;44.756;2023-12-14T06:19:40;59.67;;;5.97;;
75667;SDS011;64266;48.798;44.756;2023-12-14T06:24:43;56.17;;;6.47;;
75667;SDS011;64266;48.798;44.756;2023-12-14T06:29:46;50.78;;;5.43;;
75667;SDS011;64266;48.798;44.756;2023-12-14T06:34:49;78.32;;;10.35;;
75667;SDS011;64266;48.798;44.756;2023-12-14T06:40:16;55.30;;;5.47;;
75667;SDS011;64266;48.798;44.756;2023-12-14T06:45:19;53.88;;;6.20;;
75667;SDS011;64266;48.798;44.756;2023-12-14T06:50:22;71.47;;;7.50;;
75667;SDS011;64266;48.798;44.756;2023-12-14T06:55:25;52.25;;;5.60;;
75667;SDS011;64266;48.798;44.756;2023-12-14T07:00:28;77.45;;;9.48;;
75667;SDS011;64266;48.798;44.756;2023-12-14T07:05:35;63.42;;;6.20;;
75667;SDS011;64266;48.798;44.756;2023-12-14T07:10:40;77.70;;;7.63;;
75667;SDS011;64266;48.798;44.756;2023-12-14T07:15:44;65.30;;;7.68;;
75667;SDS011;64266;48.798;44.756;2023-12-14T07:20:48;67.68;;;7.40;;
75667;SDS011;64266;48.798;44.756;2023-12-14T07:25:51;103.13;;;7.10;;
75667;SDS011;64266;48.798;44.756;2023-12-14T07:31:10;90.70;;;8.75;;
75667;SDS011;64266;48.798;44.756;2023-12-14T07:36:13;67.55;;;7.75;;
75667;SDS011;64266;48.798;44.756;2023-12-14T07:41:16;88.65;;;10.00;;
75667;SDS011;64266;48.798;44.756;2023-12-14T07:46:19;89.35;;;10.98;;
75667;SDS011;64266;48.798;44.756;2023-12-14T07:51:22;97.30;;;8.70;;
75667;SDS011;64266;48.798;44.756;2023-12-14T07:56:25;82.50;;;8.68;;
75667;SDS011;64266;48.798;44.756;2023-12-14T08:01:30;103.78;;;9.00;;
75667;SDS011;64266;48.798;44.756;2023-12-14T08:06:33;87.30;;;8.38;;
75667;SDS011;64266;48.798;44.756;2023-12-14T08:11:36;76.18;;;7.43;;
75667;SDS011;64266;48.798;44.756;2023-12-14T08:16:39;75.25;;;8.25;;
75667;SDS011;64266;48.798;44.756;2023-12-14T08:21:42;93.78;;;10.20;;
75667;SDS011;64266;48.798;44.756;2023-12-14T08:26:45;105.57;;;9.32;;
75667;SDS011;64266;48.798;44.756;2023-12-14T08:31:48;106.20;;;9.82;;
75667;SDS011;64266;48.798;44.756;2023-12-14T08:36:51;101.95;;;8.45;;
75667;SDS011;64266;48.798;44.756;2023-12-14T08:41:54;95.60;;;11.02;;
75667;SDS011;64266;48.798;44.756;2023-12-14T08:46:59;112.20;;;13.45;;
75667;SDS011;64266;48.798;44.756;2023-12-14T08:52:12;89.90;;;8.20;;
75667;SDS011;64266;48.798;44.756;2023-12-14T08:57:16;82.25;;;7.50;;
75667;SDS011;64266;48.798;44.756;2023-12-14T09:02:19;83.13;;;9.18;;
75667;SDS011;64266;48.798;44.756;2023-12-14T09:07:23;90.43;;;8.93;;
75667;SDS011;64266;48.798;44.756;2023-12-14T09:12:26;98.80;;;9.80;;
75667;SDS011;64266;48.798;44.756;2023-12-14T09:17:29;107.00;;;10.35;;
75667;SDS011;64266;48.798;44.756;2023-12-14T09:22:39;100.00;;;10.55;;
75667;SDS011;64266;48.798;44.756;2023-12-14T09:27:42;97.93;;;10.63;;
75667;SDS011;64266;48.798;44.756;2023-12-14T09:32:45;122.53;;;10.15;;
75667;SDS011;64266;48.798;44.756;2023-12-14T09:37:51;102.35;;;16.15;;
75667;SDS011;64266;48.798;44.756;2023-12-14T09:42:56;87.40;;;9.25;;
75667;SDS011;64266;48.798;44.756;2023-12-14T09:47:59;87.20;;;8.68;;
75667;SDS011;64266;48.798;44.756;2023-12-14T09:53:04;87.07;;;9.02;;
75667;SDS011;64266;48.798;44.756;2023-12-14T09:58:07;93.97;;;10.90;;
75667;SDS011;64266;48.798;44.756;2023-12-14T10:03:20;94.13;;;9.07;;
75667;SDS011;64266;48.798;44.756;2023-12-14T10:08:31;113.50;;;9.23;;
75667;SDS011;64266;48.798;44.756;2023-12-14T10:13:37;75.07;;;9.15;;
75667;SDS011;64266;48.798;44.756;2023-12-14T10:18:41;65.65;;;6.88;;
75667;SDS011;64266;48.798;44.756;2023-12-14T10:23:45;79.72;;;9.68;;
75667;SDS011;64266;48.798;44.756;2023-12-14T10:28:49;84.00;;;7.45;;
75667;SDS011;64266;48.798;44.756;2023-12-14T10:33:54;91.70;;;10.57;;
75667;SDS011;64266;48.798;44.756;2023-12-14T10:38:59;82.88;;;7.32;;
75667;SDS011;64266;48.798;44.756;2023-12-14T10:44:03;93.32;;;9.55;;
75667;SDS011;64266;48.798;44.756;2023-12-14T10:49:28;87.38;;;8.35;;
75667;SDS011;64266;48.798;44.756;2023-12-14T10:54:35;97.80;;;9.60;;
75667;SDS011;64266;48.798;44.756;2023-12-14T10:59:42;73.88;;;8.98;;
75667;SDS011;64266;48.798;44.756;2023-12-14T11:04:55;102.90;;;10.52;;
75667;SDS011;64266;48.798;44.756;2023-12-14T11:10:03;82.57;;;10.20;;
75667;SDS011;64266;48.798;44.756;2023-12-14T11:15:17;70.93;;;8.63;;
75667;SDS011;64266;48.798;44.756;2023-12-14T11:20:24;109.45;;;10.27;;
75667;SDS011;64266;48.798;44.756;2023-12-14T11:25:32;73.40;;;8.55;;
75667;SDS011;64266;48.798;44.756;2023-12-14T11:30:47;126.78;;;11.35;;
75667;SDS011;64266;48.798;44.756;2023-12-14T11:36:00;98.18;;;9.43;;
75667;SDS011;64266;48.798;44.756;2023-12-14T11:41:06;70.15;;;13.25;;
75667;SDS011;64266;48.798;44.756;2023-12-14T11:46:10;74.50;;;8.00;;
75667;SDS011;64266;48.798;44.756;2023-12-14T11:51:17;71.90;;;7.38;;
75667;SDS011;64266;48.798;44.756;2023-12-14T11:56:20;72.15;;;8.10;;
75667;SDS011;64266;48.798;44.756;2023-12-14T12:01:25;75.10;;;8.57;;
75667;SDS011;64266;48.798;44.756;2023-12-14T12:06:33;70.45;;;6.35;;
75667;SDS011;64266;48.798;44.756;2023-12-14T12:11:36;51.13;;;6.30;;
75667;SDS011;64266;48.798;44.756;2023-12-14T12:16:39;67.85;;;7.50;;
75667;SDS011;64266;48.798;44.756;2023-12-14T12:21:42;71.95;;;5.85;;
75667;SDS011;64266;48.798;44.756;2023-12-14T12:26:45;69.70;;;8.32;;
75667;SDS011;64266;48.798;44.756;2023-12-14T12:31:48;89.57;;;8.48;;
75667;SDS011;64266;48.798;44.756;2023-12-14T12:36:51;67.32;;;5.65;;
75667;SDS011;64266;48.798;44.756;2023-12-14T12:41:54;48.58;;;5.78;;
75667;SDS011;64266;48.798;44.756;2023-12-14T12:46:57;44.78;;;5.65;;
75667;SDS011;64266;48.798;44.756;2023-12-14T12:52:12;49.30;;;6.55;;
75667;SDS011;64266;48.798;44.756;2023-12-14T12:57:15;50.42;;;4.78;;
75667;SDS011;64266;48.798;44.756;2023-12-14T13:02:18;50.38;;;6.68;;
75667;SDS011;64266;48.798;44.756;2023-12-14T13:07:21;67.13;;;6.50;;
75667;SDS011;64266;48.798;44.756;2023-12-14T13:12:25;49.75;;;6.72;;
75667;SDS011;64266;48.798;44.756;2023-12-14T13:17:28;50.95;;;4.90;;
75667;SDS011;64266;48.798;44.756;2023-12-14T13:22:31;38.88;;;5.07;;
75667;SDS011;64266;48.798;44.756;2023-12-14T13:27:34;85.55;;;6.53;;
75667;SDS011;64266;48.798;44.756;2023-12-14T13:32:40;45.45;;;4.95;;
75667;SDS011;64266;48.798;44.756;2023-12-14T13:37:43;56.83;;;6.20;;
75667;SDS011;64266;48.798;44.756;2023-12-14T13:42:47;43.88;;;7.07;;
75667;SDS011;64266;48.798;44.756;2023-12-14T13:48:04;43.38;;;4.72;;
75667;SDS011;64266;48.798;44.756;2023-12-14T13:53:10;38.22;;;5.70;;
75667;SDS011;64266;48.798;44.756;2023-12-14T13:58:13;54.72;;;6.75;;
75667;SDS011;64266;48.798;44.756;2023-12-14T14:03:16;56.00;;;9.82;;
75667;SDS011;64266;48.798;44.756;2023-12-14T14:08:19;74.25;;;8.00;;
75667;SDS011;64266;48.798;44.756;2023-12-14T14:13:23;45.42;;;5.93;;
75667;SDS011;64266;48.798;44.756;2023-12-14T14:18:27;66.90;;;6.25;;
75667;SDS011;64266;48.798;44.756;2023-12-14T14:23:30;43.22;;;5.72;;
75667;SDS011;64266;48.798;44.756;2023-12-14T14:28:33;50.00;;;5.90;;
75667;SDS011;64266;48.798;44.756;2023-12-14T14:33:37;52.50;;;5.10;;
75667;SDS011;64266;48.798;44.756;2023-12-14T14:38:40;48.75;;;5.40;;
75667;SDS011;64266;48.798;44.756;2023-12-14T14:43:43;43.85;;;5.07;;
75667;SDS011;64266;48.798;44.756;2023-12-14T14:48:46;38.60;;;4.78;;
75667;SDS011;64266;48.798;44.756;2023-12-14T14:53:50;40.50;;;4.07;;
75667;SDS011;64266;48.798;44.756;2023-12-14T14:58:53;28.75;;;4.25;;
75667;SDS011;64266;48.798;44.756;2023-12-14T15:03:56;52.08;;;4.65;;
75667;SDS011;64266;48.798;44.756;2023-12-14T15:08:59;31.40;;;4.90;;
75667;SDS011;64266;48.798;44.756;2023-12-14T15:14:03;46.25;;;4.38;;
75667;SDS011;64266;48.798;44.756;2023-12-14T15:19:06;39.88;;;4.18;;
75667;SDS011;64266;48.798;44.756;2023-12-14T15:24:09;55.40;;;5.10;;
75667;SDS011;64266;48.798;44.756;2023-12-14T15:29:11;58.00;;;5.00;;
75667;SDS011;64266;48.798;44.756;2023-12-14T15:34:14;43.63;;;4.72;;
75667;SDS011;64266;48.798;44.756;2023-12-14T15:39:18;57.85;;;5.10;;
75667;SDS011;64266;48.798;44.756;2023-12-14T15:44:21;40.92;;;4.82;;
75667;SDS011;64266;48.798;44.756;2023-12-14T15:49:24;35.45;;;4.13;;
75667;SDS011;64266;48.798;44.756;2023-12-14T15:54:27;55.92;;;4.82;;
75667;SDS011;64266;48.798;44.756;2023-12-14T15:59:30;26.08;;;3.90;;
75667;SDS011;64266;48.798;44.756;2023-12-14T16:04:34;18.80;;;2.50;;
75667;SDS011;64266;48.798;44.756;2023-12-14T16:09:37;45.28;;;4.88;;
75667;SDS011;64266;48.798;44.756;2023-12-14T16:14:40;23.90;;;3.80;;
75667;SDS011;64266;48.798;44.756;2023-12-14T16:19:43;48.60;;;4.22;;
75667;SDS011;64266;48.798;44.756;2023-12-14T16:24:50;60.17;;;5.65;;
75667;SDS011;64266;48.798;44.756;2023-12-14T16:29:53;45.40;;;4.70;;
75667;SDS011;64266;48.798;44.756;2023-12-14T16:34:56;39.00;;;3.97;;
75667;SDS011;64266;48.798;44.756;2023-12-14T16:40:00;45.28;;;4.72;;
75667;SDS011;64266;48.798;44.756;2023-12-14T16:45:05;21.40;;;3.88;;
75667;SDS011;64266;48.798;44.756;2023-12-14T16:50:08;36.95;;;5.60;;
75667;SDS011;64266;48.798;44.756;2023-12-14T16:55:14;43.95;;;4.57;;
75667;SDS011;64266;48.798;44.756;2023-12-14T17:00:17;32.10;;;3.88;;
75667;SDS011;64266;48.798;44.756;2023-12-14T17:05:20;46.10;;;4.57;;
75667;SDS011;64266;48.798;44.756;2023-12-14T17:10:23;32.90;;;3.72;;
75667;SDS011;64266;48.798;44.756;2023-12-14T17:15:27;23.73;;;3.80;;
75667;SDS011;64266;48.798;44.756;2023-12-14T17:20:34;27.10;;;3.75;;
75667;SDS011;64266;48.798;44.756;2023-12-14T17:25:37;22.85;;;2.90;;
75667;SDS011;64266;48.798;44.756;2023-12-14T17:30:40;71.55;;;5.50;;
75667;SDS011;64266;48.798;44.756;2023-12-14T17:35:44;36.40;;;5.38;;
75667;SDS011;64266;48.798;44.756;2023-12-14T17:40:47;30.40;;;3.85;;
75667;SDS011;64266;48.798;44.756;2023-12-14T17:45:50;60.58;;;4.90;;
75667;SDS011;64266;48.798;44.756;2023-12-14T17:50:57;38.17;;;3.67;;
75667;SDS011;64266;48.798;44.756;2023-12-14T17:56:04;34.22;;;4.07;;
75667;SDS011;64266;48.798;44.756;2023-12-14T18:01:16;26.92;;;3.17;;
75667;SDS011;64266;48.798;44.756;2023-12-14T18:06:32;24.63;;;3.75;;
75667;SDS011;64266;48.798;44.756;2023-12-14T18:11:44;28.42;;;3.42;;
75667;SDS011;64266;48.798;44.756;2023-12-14T18:16:48;31.88;;;4.22;;
75667;SDS011;64266;48.798;44.756;2023-12-14T18:21:56;30.13;;;3.28;;
75667;SDS011;64266;48.798;44.756;2023-12-14T18:27:05;51.70;;;3.80;;
75667;SDS011;64266;48.798;44.756;2023-12-14T18:32:16;34.88;;;3.28;;
75667;SDS011;64266;48.798;44.756;2023-12-14T18:37:20;48.67;;;4.22;;
75667;SDS011;64266;48.798;44.756;2023-12-14T18:42:30;42.13;;;3.58;;
75667;SDS011;64266;48.798;44.756;2023-12-14T18:47:36;34.10;;;4.22;;
75667;SDS011;64266;48.798;44.756;2023-12-14T18:52:51;30.73;;;4.13;;
75667;SDS011;64266;48.798;44.756;2023-12-14T18:58:08;36.78;;;3.78;;
75667;SDS011;64266;48.798;44.756;2023-12-14T19:03:41;31.40;;;4.32;;
75667;SDS011;64266;48.798;44.756;2023-12-14T19:08:52;31.35;;;3.42;;
75667;SDS011;64266;48.798;44.756;2023-12-14T19:14:21;27.05;;;3.10;;
75667;SDS011;64266;48.798;44.756;2023-12-14T19:19:38;26.05;;;2.60;;
75667;SDS011;64266;48.798;44.756;2023-12-14T19:24:55;25.55;;;3.83;;
75667;SDS011;64266;48.798;44.756;2023-12-14T19:30:12;31.35;;;3.78;;
75667;SDS011;64266;48.798;44.756;2023-12-14T19:35:25;42.42;;;3.13;;
75667;SDS011;64266;48.798;44.756;2023-12-14T19:40:41;26.70;;;3.22;;
75667;SDS011;64266;48.798;44.756;2023-12-14T19:45:56;26.33;;;3.53;;
75667;SDS011;64266;48.798;44.756;2023-12-14T19:50:59;18.75;;;3.40;;
75667;SDS011;64266;48.798;44.756;2023-12-14T19:56:02;29.58;;;3.70;;
75667;SDS011;64266;48.798;44.756;2023-12-14T20:01:05;31.27;;;2.60;;
75667;SDS011;64266;48.798;44.756;2023-12-14T20:06:09;28.00;;;2.70;;
75667;SDS011;64266;48.798;44.756;2023-12-14T20:11:22;26.23;;;3.35;;
75667;SDS011;64266;48.798;44.756;2023-12-14T20:16:25;67.97;;;5.38;;
75667;SDS011;64266;48.798;44.756;2023-12-14T20:21:28;61.25;;;6.15;;
75667;SDS011;64266;48.798;44.756;2023-12-14T20:26:31;37.25;;;3.20;;
75667;SDS011;64266;48.798;44.756;2023-12-14T20:31:35;33.03;;;4.13;;
75667;SDS011;64266;48.798;44.756;2023-12-14T20:36:38;27.48;;;2.78;;
75667;SDS011;64266;48.798;44.756;2023-12-14T20:41:41;51.20;;;3.88;;
75667;SDS011;64266;48.798;44.756;2023-12-14T20:46:44;39.80;;;4.50;;
75667;SDS011;64266;48.798;44.756;2023-12-14T20:51:48;47.67;;;5.05;;
75667;SDS011;64266;48.798;44.756;2023-12-14T20:56:51;11.50;;;1.98;;
75667;SDS011;64266;48.798;44.756;2023-12-14T21:01:54;41.00;;;4.45;;
75667;SDS011;64266;48.798;44.756;2023-12-14T21:06:58;29.05;;;2.65;;
75667;SDS011;64266;48.798;44.756;2023-12-14T21:12:01;38.90;;;3.53;;
75667;SDS011;64266;48.798;44.756;2023-12-14T21:17:05;17.23;;;3.35;;
75667;SDS011;64266;48.798;44.756;2023-12-14T21:22:08;34.33;;;2.75;;
75667;SDS011;64266;48.798;44.756;2023-12-14T21:27:11;31.00;;;3.53;;
75667;SDS011;64266;48.798;44.756;2023-12-14T21:32:32;29.73;;;2.75;;
75667;SDS011;64266;48.798;44.756;2023-12-14T21:37:36;50.03;;;4.20;;
75667;SDS011;64266;48.798;44.756;2023-12-14T21:42:40;21.00;;;2.92;;
75667;SDS011;64266;48.798;44.756;2023-12-14T21:47:43;34.85;;;3.70;;
75667;SDS011;64266;48.798;44.756;2023-12-14T21:52:46;34.45;;;3.65;;
75667;SDS011;64266;48.798;44.756;2023-12-14T21:57:49;35.88;;;2.75;;
75667;SDS011;64266;48.798;44.756;2023-12-14T22:02:53;21.35;;;2.97;;
75667;SDS011;64266;48.798;44.756;2023-12-14T22:07:56;31.88;;;5.75;;
75667;SDS011;64266;48.798;44.756;2023-12-14T22:13:25;24.90;;;2.85;;
75667;SDS011;64266;48.798;44.756;2023-12-14T22:18:28;40.25;;;3.88;;
75667;SDS011;64266;48.798;44.756;2023-12-14T22:23:31;26.13;;;3.22;;
75667;SDS011;64266;48.798;44.756;2023-12-14T22:28:34;40.72;;;3.63;;
75667;SDS011;64266;48.798;44.756;2023-12-14T22:33:37;32.45;;;4.22;;
75667;SDS011;64266;48.798;44.756;2023-12-14T22:38:40;46.05;;;3.67;;
75667;SDS011;64266;48.798;44.756;2023-12-14T22:43:43;24.67;;;2.75;;
75667;SDS011;64266;48.798;44.756;2023-12-14T22:48:46;40.00;;;3.53;;
75667;SDS011;64266;48.798;44.756;2023-12-14T22:53:49;22.48;;;3.70;;
75667;SDS011;64266;48.798;44.756;2023-12-14T22:58:52;38.88;;;4.15;;
75667;SDS011;64266;48.798;44.756;2023-12-14T23:03:55;33.42;;;4.30;;
75667;SDS011;64266;48.798;44.756;2023-12-14T23:08:59;20.08;;;4.53;;
75667;SDS011;64266;48.798;44.756;2023-12-14T23:14:03;45.40;;;4.00;;
75667;SDS011;64266;48.798;44.756;2023-12-14T23:19:06;33.20;;;3.47;;
75667;SDS011;64266;48.798;44.756;2023-12-14T23:24:09;22.90;;;3.33;;
75667;SDS011;64266;48.798;44.756;2023-12-14T23:29:12;19.05;;;2.10;;
75667;SDS011;64266;48.798;44.756;2023-12-14T23:34:15;26.35;;;3.05;;
75667;SDS011;64266;48.798;44.756;2023-12-14T23:39:18;21.15;;;2.92;;
75667;SDS011;64266;48.798;44.756;2023-12-14T23:44:21;22.08;;;2.42;;
75667;SDS011;64266;48.798;44.756;2023-12-14T23:49:24;35.33;;;3.88;;
75667;SDS011;64266;48.798;44.756;2023-12-14T23:54:27;25.17;;;3.20;;
75667;SDS011;64266;48.798;44.756;2023-12-14T23:59:30;28.38;;;2.72;;
